createdAt,value
2023-05-02T00:01:32.573Z,32.83
2023-05-02T00:03:59.530Z,32.63
2023-05-02T00:06:26.534Z,32.76
2023-05-02T00:08:53.362Z,32.67
2023-05-02T00:11:20.120Z,32.53
2023-05-02T00:13:46.874Z,32.58
2023-05-02T00:16:13.643Z,32.59
2023-05-02T00:18:40.417Z,32.14
2023-05-02T00:21:08.414Z,32.29
2023-05-02T00:23:35.209Z,32.32
2023-05-02T00:26:01.968Z,32.12
2023-05-02T00:28:28.904Z,32.18
2023-05-02T00:30:55.736Z,34.80
2023-05-02T00:33:22.749Z,35.08
2023-05-02T00:35:49.686Z,38.14
2023-05-02T00:38:16.687Z,35.87
2023-05-02T00:40:44.699Z,34.63
2023-05-02T00:43:11.594Z,33.94
2023-05-02T00:45:40.432Z,33.42
2023-05-02T00:48:07.923Z,33.29
2023-05-02T00:50:34.729Z,33.24
2023-05-02T00:53:03.658Z,33.02
2023-05-02T00:55:30.458Z,32.88
2023-05-02T00:57:57.209Z,32.70
2023-05-02T01:00:24.325Z,32.61
2023-05-02T01:02:51.588Z,32.66
2023-05-02T01:05:19.961Z,32.38
2023-05-02T01:07:46.892Z,32.42
2023-05-02T01:10:13.657Z,32.23
2023-05-02T01:12:40.456Z,32.25
2023-05-02T01:15:07.346Z,32.29
2023-05-02T01:17:34.434Z,32.04
2023-05-02T01:20:01.488Z,32.25
2023-05-02T01:22:29.230Z,31.93
2023-05-02T01:24:55.976Z,34.17
2023-05-02T01:27:22.752Z,34.86
2023-05-02T01:29:49.494Z,36.86
2023-05-02T01:32:16.369Z,36.89
2023-05-02T01:34:43.268Z,35.24
2023-05-02T01:37:10.283Z,34.01
2023-05-02T01:39:37.043Z,33.58
2023-05-02T01:42:03.808Z,33.31
2023-05-02T01:44:30.558Z,32.80
2023-05-02T01:46:57.512Z,32.77
2023-05-02T01:49:24.339Z,32.65
2023-05-02T01:51:51.091Z,32.68
2023-05-02T01:54:18.051Z,32.76
2023-05-02T01:56:45.478Z,32.32
2023-05-02T01:59:12.235Z,32.36
2023-05-02T02:01:39.112Z,32.15
2023-05-02T02:04:06.664Z,32.26
2023-05-02T02:06:33.805Z,32.25
2023-05-02T02:09:00.726Z,32.36
2023-05-02T02:11:27.539Z,32.13
2023-05-02T02:13:54.293Z,31.97
2023-05-02T02:16:21.597Z,32.22
2023-05-02T02:18:48.394Z,34.59
2023-05-02T02:21:15.119Z,34.88
2023-05-02T02:23:43.328Z,36.99
2023-05-02T02:26:10.238Z,35.97
2023-05-02T02:28:37.061Z,34.45
2023-05-02T02:31:03.973Z,33.67
2023-05-02T02:33:31.005Z,33.48
2023-05-02T02:35:57.783Z,33.05
2023-05-02T02:38:24.551Z,32.94
2023-05-02T02:40:51.341Z,32.75
2023-05-02T02:43:18.135Z,32.70
2023-05-02T02:45:44.984Z,32.79
2023-05-02T02:48:11.912Z,32.53
2023-05-02T02:50:38.667Z,32.72
2023-05-02T02:53:05.508Z,32.62
2023-05-02T02:55:32.335Z,32.28
2023-05-02T02:57:59.084Z,31.92
2023-05-02T03:00:25.958Z,32.38
2023-05-02T03:02:53.247Z,32.00
2023-05-02T03:05:20.340Z,32.25
2023-05-02T03:07:47.094Z,32.22
2023-05-02T03:10:13.817Z,32.05
2023-05-02T03:12:41.203Z,34.24
2023-05-02T03:15:07.961Z,34.77
2023-05-02T03:17:34.724Z,38.53
2023-05-02T03:20:01.644Z,36.30
2023-05-02T03:22:28.636Z,34.50
2023-05-02T03:24:55.386Z,33.66
2023-05-02T03:27:22.122Z,33.48
2023-05-02T03:29:48.932Z,33.02
2023-05-02T03:32:16.505Z,32.91
2023-05-02T03:34:43.333Z,32.95
2023-05-02T03:37:10.340Z,32.72
2023-05-02T03:39:37.103Z,32.78
2023-05-02T03:42:03.837Z,32.74
2023-05-02T03:44:30.661Z,32.78
2023-05-02T03:46:57.460Z,32.66
2023-05-02T03:49:24.249Z,32.22
2023-05-02T03:51:51.147Z,32.42
2023-05-02T03:54:17.940Z,32.33
2023-05-02T03:56:44.915Z,32.28
2023-05-02T03:59:12.035Z,32.26
2023-05-02T04:01:38.816Z,32.30
2023-05-02T04:04:05.750Z,32.03
2023-05-02T04:06:32.686Z,32.10
2023-05-02T04:08:59.721Z,34.90
2023-05-02T04:11:26.693Z,35.83
2023-05-02T04:13:53.505Z,39.53
2023-05-02T04:16:20.362Z,35.75
2023-05-02T04:18:47.222Z,34.52
2023-05-02T04:21:13.991Z,33.86
2023-05-02T04:23:41.036Z,33.44
2023-05-02T04:26:07.801Z,33.28
2023-05-02T04:28:34.560Z,33.16
2023-05-02T04:31:01.372Z,33.22
2023-05-02T04:33:28.134Z,32.94
2023-05-02T04:35:54.935Z,32.93
2023-05-02T04:38:21.722Z,32.77
2023-05-02T04:40:48.499Z,32.46
2023-05-02T04:43:15.413Z,32.59
2023-05-02T04:45:42.186Z,32.36
2023-05-02T04:48:09.001Z,32.54
2023-05-02T04:50:35.884Z,32.52
2023-05-02T04:53:02.674Z,32.45
2023-05-02T04:55:30.084Z,32.32
2023-05-02T04:57:56.856Z,32.19
2023-05-02T05:00:23.625Z,32.06
2023-05-02T05:06:02.413Z,34.64
2023-05-02T05:08:29.316Z,35.02
2023-05-02T05:10:56.062Z,37.70
2023-05-02T05:13:22.855Z,35.66
2023-05-02T05:15:49.709Z,34.45
2023-05-02T05:18:16.680Z,33.62
2023-05-02T05:20:43.682Z,33.43
2023-05-02T05:23:10.600Z,33.13
2023-05-02T05:25:37.441Z,32.89
2023-05-02T05:28:04.250Z,33.27
2023-05-02T05:30:31.071Z,32.57
2023-05-02T05:33:00.913Z,32.94
2023-05-02T05:35:27.736Z,33.01
2023-05-02T05:37:54.497Z,32.59
2023-05-02T05:40:21.455Z,32.71
2023-05-02T05:42:48.249Z,32.44
2023-05-02T05:45:16.931Z,32.59
2023-05-02T05:47:43.703Z,32.16
2023-05-02T05:50:11.029Z,32.27
2023-05-02T05:52:37.800Z,32.11
2023-05-02T05:55:04.592Z,32.15
2023-05-02T05:57:31.360Z,34.82
2023-05-02T05:59:58.256Z,34.63
2023-05-02T06:02:25.267Z,37.81
2023-05-02T06:04:52.137Z,35.81
2023-05-02T06:07:18.947Z,34.67
2023-05-02T06:09:45.932Z,33.85
2023-05-02T06:12:12.698Z,33.49
2023-05-02T06:14:39.526Z,33.43
2023-05-02T06:17:06.528Z,33.42
2023-05-02T06:19:33.319Z,33.31
2023-05-02T06:22:00.105Z,33.04
2023-05-02T06:24:26.941Z,33.17
2023-05-02T06:26:53.770Z,32.70
2023-05-02T06:29:20.614Z,32.66
2023-05-02T06:31:47.392Z,32.88
2023-05-02T06:34:14.275Z,32.64
2023-05-02T06:36:41.036Z,32.80
2023-05-02T06:39:07.787Z,32.50
2023-05-02T06:41:34.646Z,32.58
2023-05-02T06:44:01.407Z,32.58
2023-05-02T06:46:28.189Z,32.30
2023-05-02T06:48:54.968Z,34.24
2023-05-02T06:51:22.494Z,35.34
2023-05-02T06:53:49.356Z,36.39
2023-05-02T06:56:16.304Z,37.43
2023-05-02T06:58:43.069Z,35.60
2023-05-02T07:01:10.110Z,34.81
2023-05-02T07:03:36.971Z,34.20
2023-05-02T07:06:03.792Z,33.77
2023-05-02T07:08:30.676Z,33.54
2023-05-02T07:10:57.486Z,33.29
2023-05-02T07:13:24.260Z,33.49
2023-05-02T07:15:51.003Z,33.41
2023-05-02T07:18:17.907Z,32.94
2023-05-02T07:20:44.779Z,33.05
2023-05-02T07:23:11.584Z,33.08
2023-05-02T07:25:39.894Z,32.93
2023-05-02T07:28:06.728Z,32.71
2023-05-02T07:30:33.480Z,32.72
2023-05-02T07:33:00.462Z,32.66
2023-05-02T07:35:27.538Z,32.67
2023-05-02T07:37:54.289Z,35.09
2023-05-02T07:40:21.099Z,35.79
2023-05-02T07:42:47.909Z,37.75
2023-05-02T07:45:14.723Z,37.33
2023-05-02T07:47:41.945Z,35.42
2023-05-02T07:50:09.157Z,34.48
2023-05-02T07:52:36.034Z,34.32
2023-05-02T07:55:02.959Z,33.81
2023-05-02T07:57:29.753Z,33.63
2023-05-02T07:59:57.274Z,33.67
2023-05-02T08:02:24.781Z,33.21
2023-05-02T08:04:51.718Z,33.61
2023-05-02T08:07:18.524Z,33.49
2023-05-02T08:09:45.321Z,33.44
2023-05-02T08:12:12.089Z,33.23
2023-05-02T08:14:38.987Z,33.15
2023-05-02T08:17:06.098Z,33.21
2023-05-02T08:19:32.914Z,33.00
2023-05-02T08:21:59.719Z,32.74
2023-05-02T08:24:26.663Z,33.04
2023-05-02T08:26:53.436Z,33.75
2023-05-02T08:29:20.305Z,35.48
2023-05-02T08:31:47.157Z,35.74
2023-05-02T08:34:13.940Z,38.43
2023-05-02T08:36:40.749Z,36.50
2023-05-02T08:39:11.238Z,35.05
2023-05-02T08:41:38.182Z,34.74
2023-05-02T08:44:05.099Z,34.17
2023-05-02T08:46:32.009Z,34.04
2023-05-02T08:48:59.067Z,33.90
2023-05-02T08:51:26.010Z,33.46
2023-05-02T08:53:52.766Z,33.51
2023-05-02T08:56:19.575Z,33.61
2023-05-02T08:58:46.345Z,33.36
2023-05-02T09:01:13.285Z,33.54
2023-05-02T09:03:40.099Z,33.43
2023-05-02T09:06:07.076Z,32.99
2023-05-02T09:08:34.395Z,33.19
2023-05-02T09:11:01.252Z,33.28
2023-05-02T09:13:28.107Z,33.96
2023-05-02T09:15:54.895Z,36.17
2023-05-02T09:18:23.256Z,35.54
2023-05-02T09:20:50.092Z,38.75
2023-05-02T09:23:16.880Z,36.88
2023-05-02T09:25:43.659Z,35.52
2023-05-02T09:28:10.648Z,34.93
2023-05-02T09:30:37.481Z,34.62
2023-05-02T09:33:04.497Z,34.39
2023-05-02T09:35:31.288Z,34.32
2023-05-02T09:37:58.052Z,34.31
2023-05-02T09:40:25.033Z,33.76
2023-05-02T09:42:51.826Z,33.59
2023-05-02T09:45:18.594Z,33.87
2023-05-02T09:47:45.460Z,33.52
2023-05-02T09:50:12.239Z,33.61
2023-05-02T09:52:39.024Z,33.28
2023-05-02T09:55:06.072Z,33.58
2023-05-02T09:57:32.893Z,33.28
2023-05-02T09:59:59.692Z,33.47
2023-05-02T10:02:26.555Z,35.65
2023-05-02T10:04:53.469Z,36.68
2023-05-02T10:07:20.331Z,38.03
2023-05-02T10:09:47.087Z,38.34
2023-05-02T10:12:13.866Z,36.47
2023-05-02T10:14:43.639Z,35.36
2023-05-02T10:17:10.903Z,35.01
2023-05-02T10:19:37.645Z,34.52
2023-05-02T10:22:04.422Z,34.78
2023-05-02T10:24:31.172Z,34.35
2023-05-02T10:26:57.940Z,34.17
2023-05-02T10:29:24.804Z,34.32
2023-05-02T10:31:51.835Z,34.01
2023-05-02T10:34:18.606Z,34.03
2023-05-02T10:36:45.580Z,33.83
2023-05-02T10:39:12.317Z,33.93
2023-05-02T10:41:39.052Z,33.56
2023-05-02T10:44:07.788Z,33.83
2023-05-02T10:46:34.734Z,33.92
2023-05-02T10:49:01.887Z,36.36
2023-05-02T10:51:29.709Z,35.92
2023-05-02T10:53:57.432Z,39.30
2023-05-02T10:56:28.516Z,37.54
2023-05-02T10:58:56.096Z,36.02
2023-05-02T11:01:22.980Z,35.46
2023-05-02T11:03:49.801Z,35.20
2023-05-02T11:06:17.407Z,34.74
2023-05-02T11:08:44.290Z,34.46
2023-05-02T11:11:11.129Z,34.28
2023-05-02T11:13:37.957Z,34.34
2023-05-02T11:16:04.760Z,34.23
2023-05-02T11:18:31.511Z,34.21
2023-05-02T11:20:58.255Z,33.97
2023-05-02T11:23:25.940Z,33.79
2023-05-02T11:25:53.039Z,34.02
2023-05-02T11:28:19.884Z,34.04
2023-05-02T11:30:48.515Z,33.94
2023-05-02T11:33:17.062Z,33.99
2023-05-02T11:35:44.112Z,36.32
2023-05-02T11:38:10.903Z,36.40
2023-05-02T11:40:37.733Z,38.96
2023-05-02T11:43:04.556Z,38.60
2023-05-02T11:45:32.210Z,36.63
2023-05-02T11:47:59.022Z,35.61
2023-05-02T11:50:27.532Z,35.24
2023-05-02T11:52:55.535Z,34.99
2023-05-02T11:55:22.353Z,34.90
2023-05-02T11:57:49.205Z,34.55
2023-05-02T12:00:15.946Z,34.48
2023-05-02T12:02:42.822Z,34.47
2023-05-02T12:05:09.921Z,34.46
2023-05-02T12:07:39.507Z,34.10
2023-05-02T12:10:06.414Z,34.06
2023-05-02T12:12:33.202Z,34.00
2023-05-02T12:15:00.107Z,33.94
2023-05-02T12:17:27.082Z,33.90
2023-05-02T12:19:53.855Z,34.06
2023-05-02T12:22:20.663Z,35.71
2023-05-02T12:24:49.111Z,36.45
2023-05-02T12:27:15.952Z,38.56
2023-05-02T12:29:42.791Z,38.95
2023-05-02T12:32:09.562Z,36.71
2023-05-02T12:34:36.554Z,35.78
2023-05-02T12:37:03.867Z,35.30
2023-05-02T12:39:30.811Z,35.31
2023-05-02T12:41:57.604Z,34.79
2023-05-02T12:44:24.478Z,34.51
2023-05-02T12:46:51.366Z,34.61
2023-05-02T12:49:18.184Z,34.74
2023-05-02T12:51:44.954Z,34.43
2023-05-02T12:54:11.710Z,34.32
2023-05-02T12:56:38.490Z,34.33
2023-05-02T12:59:05.761Z,34.11
2023-05-02T13:01:32.523Z,34.12
2023-05-02T13:03:59.365Z,34.27
2023-05-02T13:06:26.255Z,33.81
2023-05-02T13:08:53.042Z,35.56
2023-05-02T13:11:20.503Z,38.94
2023-05-02T13:13:47.260Z,39.64
2023-05-02T13:16:14.288Z,37.41
2023-05-02T13:18:41.417Z,36.42
2023-05-02T13:21:08.244Z,35.43
2023-05-02T13:23:35.043Z,35.19
2023-05-02T13:26:01.903Z,34.74
2023-05-02T13:28:33.039Z,34.65
2023-05-02T13:30:59.890Z,34.53
2023-05-02T13:33:26.693Z,34.36
2023-05-02T13:35:53.464Z,34.17
2023-05-02T13:38:20.262Z,34.15
2023-05-02T13:40:47.085Z,34.29
2023-05-02T13:43:14.459Z,34.15
2023-05-02T13:45:41.481Z,33.85
2023-05-02T13:48:08.296Z,33.83
2023-05-02T13:50:37.255Z,35.10
2023-05-02T13:53:04.234Z,36.71
2023-05-02T13:55:31.076Z,36.70
2023-05-02T13:57:57.932Z,39.51
2023-05-02T14:00:24.985Z,37.19
2023-05-02T14:02:52.716Z,36.10
2023-05-02T14:05:19.599Z,35.89
2023-05-02T14:07:46.809Z,35.26
2023-05-02T14:10:13.591Z,35.29
2023-05-02T14:12:40.381Z,34.60
2023-05-02T14:15:07.195Z,34.72
2023-05-02T14:17:34.072Z,34.71
2023-05-02T14:20:01.023Z,34.40
2023-05-02T14:22:28.003Z,34.67
2023-05-02T14:24:54.788Z,34.09
2023-05-02T14:27:21.588Z,34.21
2023-05-02T14:29:48.419Z,34.18
2023-05-02T14:32:15.273Z,34.16
2023-05-02T14:34:42.099Z,34.72
2023-05-02T14:37:09.296Z,36.93
2023-05-02T14:39:36.602Z,36.44
2023-05-02T14:42:04.158Z,39.31
2023-05-02T14:44:31.048Z,37.98
2023-05-02T14:46:57.950Z,36.53
2023-05-02T14:49:25.263Z,35.96
2023-05-02T14:51:52.020Z,35.52
2023-05-02T14:54:20.290Z,35.03
2023-05-02T14:56:48.154Z,35.13
2023-05-02T14:59:15.022Z,34.72
2023-05-02T15:01:41.914Z,34.75
2023-05-02T15:04:09.077Z,34.46
2023-05-02T15:06:36.738Z,34.55
2023-05-02T15:09:04.716Z,34.23
2023-05-02T15:11:31.624Z,34.47
2023-05-02T15:13:59.552Z,34.22
2023-05-02T15:16:29.742Z,34.20
2023-05-02T15:18:56.690Z,36.84
2023-05-02T15:21:23.626Z,37.54
2023-05-02T15:23:50.706Z,40.38
2023-05-02T15:26:17.710Z,38.10
2023-05-02T15:28:44.473Z,36.71
2023-05-02T15:31:11.280Z,36.16
2023-05-02T15:33:38.284Z,35.42
2023-05-02T15:36:05.149Z,35.33
2023-05-02T15:38:33.948Z,34.96
2023-05-02T15:41:00.816Z,35.01
2023-05-02T15:43:27.738Z,34.72
2023-05-02T15:45:54.589Z,34.90
2023-05-02T15:48:21.560Z,34.47
2023-05-02T15:50:48.315Z,34.70
2023-05-02T15:53:15.641Z,34.37
2023-05-02T15:55:43.000Z,34.57
2023-05-02T15:58:09.812Z,34.30
2023-05-02T16:00:36.635Z,34.37
2023-05-02T16:03:04.158Z,34.22
2023-05-02T16:05:31.189Z,36.07
2023-05-02T16:07:58.085Z,39.33
2023-05-02T16:10:24.880Z,39.72
2023-05-02T16:12:52.496Z,37.36
2023-05-02T16:15:19.266Z,36.17
2023-05-02T16:17:46.088Z,35.55
2023-05-02T16:20:13.141Z,35.45
2023-05-02T16:22:40.095Z,35.10
2023-05-02T16:25:07.004Z,35.02
2023-05-02T16:27:33.744Z,34.61
2023-05-02T16:30:00.843Z,34.59
2023-05-02T16:32:27.975Z,34.60
2023-05-02T16:34:54.756Z,34.12
2023-05-02T16:37:21.523Z,34.24
2023-05-02T16:39:48.690Z,34.25
2023-05-02T16:42:15.575Z,34.18
2023-05-02T16:44:42.383Z,34.16
2023-05-02T16:47:09.241Z,35.88
2023-05-02T16:49:36.153Z,39.40
2023-05-02T16:52:02.915Z,39.94
2023-05-02T16:54:29.671Z,37.58
2023-05-02T16:56:56.429Z,36.05
2023-05-02T16:59:23.185Z,35.74
2023-05-02T17:01:50.050Z,35.43
2023-05-02T17:04:17.471Z,35.21
2023-05-02T17:06:44.534Z,34.98
2023-05-02T17:09:11.276Z,35.06
2023-05-02T17:11:38.010Z,34.55
2023-05-02T17:14:04.824Z,34.66
2023-05-02T17:16:31.608Z,34.17
2023-05-02T17:18:58.379Z,34.33
2023-05-02T17:21:25.166Z,34.36
2023-05-02T17:23:52.187Z,34.20
2023-05-02T17:26:18.954Z,35.69
2023-05-02T17:28:46.065Z,36.74
2023-05-02T17:31:13.045Z,37.41
2023-05-02T17:33:39.909Z,39.41
2023-05-02T17:36:06.819Z,37.44
2023-05-02T17:38:33.714Z,36.39
2023-05-02T17:41:00.586Z,35.51
2023-05-02T17:43:27.349Z,35.72
2023-05-02T17:45:54.160Z,35.41
2023-05-02T17:48:21.235Z,34.92
2023-05-02T17:50:49.776Z,34.99
2023-05-02T17:53:16.636Z,34.86
2023-05-02T17:55:43.401Z,34.70
2023-05-02T17:58:10.257Z,34.42
2023-05-02T18:00:37.006Z,34.64
2023-05-02T18:03:03.955Z,34.51
2023-05-02T18:05:31.077Z,34.21
2023-05-02T18:07:58.788Z,34.34
2023-05-02T18:10:25.908Z,34.22
2023-05-02T18:12:52.757Z,34.37
2023-05-02T18:15:19.493Z,34.10
2023-05-02T18:17:46.312Z,36.61
2023-05-02T18:20:14.265Z,36.12
2023-05-02T18:22:41.265Z,38.96
2023-05-02T18:25:08.196Z,38.69
2023-05-02T18:27:34.993Z,36.72
2023-05-02T18:30:01.871Z,35.84
2023-05-02T18:32:28.742Z,35.45
2023-05-02T18:34:55.536Z,35.22
2023-05-02T18:37:29.331Z,35.31
2023-05-02T18:39:56.186Z,34.97
2023-05-02T18:42:22.945Z,34.68
2023-05-02T18:44:49.712Z,34.64
2023-05-02T18:47:17.064Z,34.73
2023-05-02T18:49:43.877Z,34.49
2023-05-02T18:52:10.624Z,34.39
2023-05-02T18:54:37.552Z,34.34
2023-05-02T18:57:04.971Z,34.22
2023-05-02T18:59:31.947Z,34.11
2023-05-02T19:01:59.587Z,34.00
2023-05-02T19:04:26.551Z,35.83
2023-05-02T19:06:53.387Z,36.32
2023-05-02T19:09:20.427Z,39.38
2023-05-02T19:11:47.168Z,39.43
2023-05-02T19:14:13.972Z,36.96
2023-05-02T19:16:41.103Z,36.03
2023-05-02T19:19:07.876Z,35.57
2023-05-02T19:21:34.638Z,35.59
2023-05-02T19:24:01.827Z,34.74
2023-05-02T19:26:28.616Z,34.87
2023-05-02T19:28:55.454Z,34.64
2023-05-02T19:31:23.465Z,34.64
2023-05-02T19:33:51.651Z,34.66
2023-05-02T19:36:18.443Z,34.54
2023-05-02T19:38:45.207Z,34.33
2023-05-02T19:41:11.970Z,34.32
2023-05-02T19:43:38.759Z,34.29
2023-05-02T19:46:05.603Z,34.08
2023-05-02T19:48:32.414Z,34.01
2023-05-02T19:50:59.172Z,34.06
2023-05-02T19:53:25.980Z,34.13
2023-05-02T19:55:53.338Z,36.58
2023-05-02T19:58:20.102Z,36.03
2023-05-02T20:00:49.174Z,40.65
2023-05-02T20:03:16.183Z,38.51
2023-05-02T20:05:43.096Z,36.66
2023-05-02T20:08:10.146Z,35.87
2023-05-02T20:10:36.880Z,35.52
2023-05-02T20:13:03.642Z,35.28
2023-05-02T20:15:30.695Z,35.10
2023-05-02T20:17:58.146Z,34.51
2023-05-02T20:20:25.065Z,34.55
2023-05-02T20:22:51.877Z,34.22
2023-05-02T20:25:18.638Z,34.45
2023-05-02T20:27:45.440Z,34.45
2023-05-02T20:30:12.299Z,34.16
2023-05-02T20:32:39.048Z,34.01
2023-05-02T20:35:05.846Z,33.80
2023-05-02T20:37:32.603Z,34.10
2023-05-02T20:39:59.358Z,33.94
2023-05-02T20:42:26.764Z,33.99
2023-05-02T20:44:54.566Z,33.88
2023-05-02T20:47:21.315Z,35.88
2023-05-02T20:49:48.069Z,36.26
2023-05-02T20:52:15.348Z,39.43
2023-05-02T20:54:42.125Z,39.33
2023-05-02T20:57:08.861Z,37.08
2023-05-02T20:59:35.790Z,35.97
2023-05-02T21:02:02.797Z,35.29
2023-05-02T21:04:29.764Z,34.91
2023-05-02T21:06:56.831Z,34.98
2023-05-02T21:09:23.691Z,34.84
2023-05-02T21:11:50.451Z,34.75
2023-05-02T21:14:17.358Z,34.11
2023-05-02T21:16:44.121Z,34.09
2023-05-02T21:19:10.993Z,34.35
2023-05-02T21:21:37.868Z,33.93
2023-05-02T21:24:04.689Z,33.84
2023-05-02T21:26:31.539Z,33.77
2023-05-02T21:28:58.372Z,33.91
2023-05-02T21:31:25.464Z,34.02
2023-05-02T21:33:52.235Z,33.40
2023-05-02T21:36:19.030Z,33.59
2023-05-02T21:38:45.857Z,33.52
2023-05-02T21:41:12.631Z,35.96
2023-05-02T21:43:39.400Z,36.14
2023-05-02T21:46:06.245Z,39.55
2023-05-02T21:48:32.995Z,38.23
2023-05-02T21:50:59.759Z,36.31
2023-05-02T21:53:27.034Z,35.51
2023-05-02T21:55:53.806Z,35.06
2023-05-02T21:58:20.581Z,34.80
2023-05-02T22:00:47.362Z,34.51
2023-05-02T22:03:14.230Z,34.42
2023-05-02T22:05:41.163Z,34.32
2023-05-02T22:08:07.932Z,34.00
2023-05-02T22:10:41.346Z,34.08
2023-05-02T22:13:12.084Z,33.91
2023-05-02T22:15:38.869Z,33.88
2023-05-02T22:18:06.509Z,33.87
2023-05-02T22:20:33.403Z,33.69
2023-05-02T22:23:00.181Z,33.77
2023-05-02T22:25:27.013Z,33.64
2023-05-02T22:27:53.852Z,33.49
2023-05-02T22:30:20.615Z,33.55
2023-05-02T22:32:47.394Z,33.52
2023-05-02T22:35:14.666Z,35.18
2023-05-02T22:37:41.425Z,36.22
2023-05-02T22:40:08.341Z,39.11
2023-05-02T22:42:35.267Z,39.17
2023-05-02T22:45:02.111Z,37.17
2023-05-02T22:47:29.008Z,35.66
2023-05-02T22:49:59.264Z,35.08
2023-05-02T22:52:27.099Z,34.76
2023-05-02T22:54:53.843Z,34.43
2023-05-02T22:57:20.997Z,34.28
2023-05-02T22:59:47.754Z,34.36
2023-05-02T23:02:14.584Z,34.01
2023-05-02T23:04:41.458Z,34.22
2023-05-02T23:07:08.205Z,33.85
2023-05-02T23:09:35.004Z,33.93
2023-05-02T23:12:03.752Z,34.05
2023-05-02T23:14:30.509Z,33.63
2023-05-02T23:16:57.301Z,33.61
2023-05-02T23:19:25.395Z,33.42
2023-05-02T23:21:52.422Z,33.51
2023-05-02T23:24:19.316Z,33.40
2023-05-02T23:26:46.085Z,33.00
2023-05-02T23:29:12.833Z,33.16
2023-05-02T23:31:39.614Z,33.23
2023-05-02T23:34:07.056Z,35.35
2023-05-02T23:36:34.267Z,36.00
2023-05-02T23:39:01.650Z,39.60
2023-05-02T23:41:28.404Z,38.32
2023-05-02T23:43:55.638Z,36.10
2023-05-02T23:46:22.425Z,35.40
2023-05-02T23:48:49.238Z,34.93
2023-05-02T23:51:15.980Z,34.63
2023-05-02T23:53:42.726Z,34.17
2023-05-02T23:56:09.815Z,34.02
2023-05-02T23:58:36.542Z,34.09
